sensor_id;sensor_type;location;lat;lon;timestamp;P1;durP1;ratioP1;P2;durP2;ratioP2
21860;SDS011;11095;48.066;8.540;2023-03-23T00:01:48;3.72;;;2.58;;
21860;SDS011;11095;48.066;8.540;2023-03-23T00:04:15;2.88;;;2.33;;
21860;SDS011;11095;48.066;8.540;2023-03-23T00:06:41;3.28;;;2.63;;
21860;SDS011;11095;48.066;8.540;2023-03-23T00:09:10;4.72;;;2.75;;
21860;SDS011;11095;48.066;8.540;2023-03-23T00:11:37;3.13;;;2.60;;
21860;SDS011;11095;48.066;8.540;2023-03-23T00:14:04;4.18;;;2.75;;
21860;SDS011;11095;48.066;8.540;2023-03-23T00:16:31;3.75;;;2.97;;
21860;SDS011;11095;48.066;8.540;2023-03-23T00:19:02;3.30;;;2.72;;
21860;SDS011;11095;48.066;8.540;2023-03-23T00:21:31;3.40;;;2.78;;
21860;SDS011;11095;48.066;8.540;2023-03-23T00:24:06;3.40;;;2.67;;
21860;SDS011;11095;48.066;8.540;2023-03-23T00:26:33;3.75;;;2.50;;
21860;SDS011;11095;48.066;8.540;2023-03-23T00:29:01;3.78;;;2.80;;
21860;SDS011;11095;48.066;8.540;2023-03-23T00:31:29;4.05;;;2.92;;
21860;SDS011;11095;48.066;8.540;2023-03-23T00:33:58;5.95;;;2.80;;
21860;SDS011;11095;48.066;8.540;2023-03-23T00:36:26;4.13;;;2.67;;
21860;SDS011;11095;48.066;8.540;2023-03-23T00:38:52;4.32;;;2.72;;
21860;SDS011;11095;48.066;8.540;2023-03-23T00:41:17;4.45;;;3.13;;
21860;SDS011;11095;48.066;8.540;2023-03-23T00:43:43;4.18;;;2.97;;
21860;SDS011;11095;48.066;8.540;2023-03-23T00:46:08;4.20;;;2.67;;
21860;SDS011;11095;48.066;8.540;2023-03-23T00:48:35;3.00;;;2.63;;
21860;SDS011;11095;48.066;8.540;2023-03-23T00:51:05;3.60;;;2.95;;
21860;SDS011;11095;48.066;8.540;2023-03-23T00:53:36;3.42;;;2.67;;
21860;SDS011;11095;48.066;8.540;2023-03-23T00:56:05;3.92;;;2.88;;
21860;SDS011;11095;48.066;8.540;2023-03-23T00:58:32;3.92;;;2.72;;
21860;SDS011;11095;48.066;8.540;2023-03-23T01:00:58;4.25;;;2.78;;
21860;SDS011;11095;48.066;8.540;2023-03-23T01:03:23;3.30;;;2.58;;
21860;SDS011;11095;48.066;8.540;2023-03-23T01:05:51;3.65;;;2.90;;
21860;SDS011;11095;48.066;8.540;2023-03-23T01:08:18;4.25;;;2.80;;
21860;SDS011;11095;48.066;8.540;2023-03-23T01:10:44;3.88;;;2.80;;
21860;SDS011;11095;48.066;8.540;2023-03-23T01:13:11;4.18;;;2.90;;
21860;SDS011;11095;48.066;8.540;2023-03-23T01:15:37;5.53;;;2.97;;
21860;SDS011;11095;48.066;8.540;2023-03-23T01:18:03;3.33;;;2.80;;
21860;SDS011;11095;48.066;8.540;2023-03-23T01:20:29;3.42;;;2.90;;
21860;SDS011;11095;48.066;8.540;2023-03-23T01:22:56;2.85;;;2.30;;
21860;SDS011;11095;48.066;8.540;2023-03-23T01:25:26;2.67;;;2.35;;
21860;SDS011;11095;48.066;8.540;2023-03-23T01:27:53;4.80;;;2.65;;
21860;SDS011;11095;48.066;8.540;2023-03-23T01:30:19;3.50;;;2.80;;
21860;SDS011;11095;48.066;8.540;2023-03-23T01:32:45;3.13;;;2.55;;
21860;SDS011;11095;48.066;8.540;2023-03-23T01:35:11;3.08;;;2.60;;
21860;SDS011;11095;48.066;8.540;2023-03-23T01:37:38;3.03;;;2.40;;
21860;SDS011;11095;48.066;8.540;2023-03-23T01:40:04;3.15;;;2.47;;
21860;SDS011;11095;48.066;8.540;2023-03-23T01:42:32;3.47;;;2.72;;
21860;SDS011;11095;48.066;8.540;2023-03-23T01:45:17;3.50;;;2.53;;
21860;SDS011;11095;48.066;8.540;2023-03-23T01:47:52;3.97;;;2.65;;
21860;SDS011;11095;48.066;8.540;2023-03-23T01:50:25;4.53;;;3.00;;
21860;SDS011;11095;48.066;8.540;2023-03-23T01:52:53;5.07;;;2.80;;
21860;SDS011;11095;48.066;8.540;2023-03-23T01:55:21;3.20;;;2.60;;
21860;SDS011;11095;48.066;8.540;2023-03-23T01:57:49;3.78;;;2.80;;
21860;SDS011;11095;48.066;8.540;2023-03-23T02:00:15;3.38;;;2.47;;
21860;SDS011;11095;48.066;8.540;2023-03-23T02:02:44;2.78;;;2.47;;
21860;SDS011;11095;48.066;8.540;2023-03-23T02:05:56;2.58;;;2.20;;
21860;SDS011;11095;48.066;8.540;2023-03-23T02:10:30;3.45;;;2.60;;
21860;SDS011;11095;48.066;8.540;2023-03-23T02:13:00;3.35;;;2.10;;
21860;SDS011;11095;48.066;8.540;2023-03-23T02:15:31;2.58;;;2.20;;
21860;SDS011;11095;48.066;8.540;2023-03-23T02:24:06;4.15;;;2.40;;
21860;SDS011;11095;48.066;8.540;2023-03-23T02:27:00;3.23;;;2.30;;
21860;SDS011;11095;48.066;8.540;2023-03-23T02:40:54;1.80;;;1.65;;
21860;SDS011;11095;48.066;8.540;2023-03-23T02:43:22;1.95;;;1.70;;
21860;SDS011;11095;48.066;8.540;2023-03-23T02:45:51;3.38;;;1.90;;
21860;SDS011;11095;48.066;8.540;2023-03-23T02:48:19;2.10;;;1.75;;
21860;SDS011;11095;48.066;8.540;2023-03-23T02:50:50;3.45;;;1.70;;
21860;SDS011;11095;48.066;8.540;2023-03-23T02:53:18;2.00;;;1.80;;
21860;SDS011;11095;48.066;8.540;2023-03-23T02:55:47;3.00;;;1.55;;
21860;SDS011;11095;48.066;8.540;2023-03-23T02:58:13;2.53;;;1.70;;
21860;SDS011;11095;48.066;8.540;2023-03-23T03:00:39;3.88;;;2.25;;
21860;SDS011;11095;48.066;8.540;2023-03-23T03:03:08;1.88;;;1.63;;
21860;SDS011;11095;48.066;8.540;2023-03-23T03:05:52;3.50;;;1.90;;
21860;SDS011;11095;48.066;8.540;2023-03-23T03:09:03;2.40;;;1.70;;
21860;SDS011;11095;48.066;8.540;2023-03-23T03:11:50;3.22;;;2.28;;
21860;SDS011;11095;48.066;8.540;2023-03-23T03:14:22;2.45;;;1.88;;
21860;SDS011;11095;48.066;8.540;2023-03-23T03:17:28;2.13;;;1.50;;
21860;SDS011;11095;48.066;8.540;2023-03-23T03:19:50;2.50;;;1.95;;
21860;SDS011;11095;48.066;8.540;2023-03-23T03:22:21;2.45;;;1.75;;
21860;SDS011;11095;48.066;8.540;2023-03-23T03:24:48;2.35;;;1.90;;
21860;SDS011;11095;48.066;8.540;2023-03-23T03:27:17;3.10;;;1.90;;
21860;SDS011;11095;48.066;8.540;2023-03-23T03:29:46;2.38;;;2.08;;
21860;SDS011;11095;48.066;8.540;2023-03-23T03:32:18;3.28;;;2.33;;
21860;SDS011;11095;48.066;8.540;2023-03-23T03:34:48;4.65;;;2.42;;
21860;SDS011;11095;48.066;8.540;2023-03-23T03:37:15;3.25;;;2.42;;
21860;SDS011;11095;48.066;8.540;2023-03-23T03:39:42;3.30;;;2.22;;
21860;SDS011;11095;48.066;8.540;2023-03-23T03:42:07;3.50;;;2.38;;
21860;SDS011;11095;48.066;8.540;2023-03-23T03:44:33;3.00;;;2.40;;
21860;SDS011;11095;48.066;8.540;2023-03-23T03:46:59;3.00;;;2.20;;
21860;SDS011;11095;48.066;8.540;2023-03-23T03:49:25;3.47;;;2.40;;
21860;SDS011;11095;48.066;8.540;2023-03-23T03:51:51;3.60;;;2.40;;
21860;SDS011;11095;48.066;8.540;2023-03-23T03:54:17;3.65;;;2.83;;
21860;SDS011;11095;48.066;8.540;2023-03-23T03:56:43;4.93;;;2.80;;
21860;SDS011;11095;48.066;8.540;2023-03-23T03:59:10;3.60;;;2.60;;
21860;SDS011;11095;48.066;8.540;2023-03-23T04:01:37;3.53;;;2.65;;
21860;SDS011;11095;48.066;8.540;2023-03-23T04:04:03;4.88;;;2.90;;
21860;SDS011;11095;48.066;8.540;2023-03-23T04:06:31;3.63;;;2.35;;
21860;SDS011;11095;48.066;8.540;2023-03-23T04:08:57;3.38;;;2.67;;
21860;SDS011;11095;48.066;8.540;2023-03-23T04:11:24;3.40;;;2.75;;
21860;SDS011;11095;48.066;8.540;2023-03-23T04:13:51;4.28;;;2.35;;
21860;SDS011;11095;48.066;8.540;2023-03-23T04:16:17;4.28;;;2.90;;
21860;SDS011;11095;48.066;8.540;2023-03-23T04:18:42;4.63;;;2.65;;
21860;SDS011;11095;48.066;8.540;2023-03-23T04:21:09;4.75;;;2.47;;
21860;SDS011;11095;48.066;8.540;2023-03-23T04:23:35;5.28;;;2.60;;
21860;SDS011;11095;48.066;8.540;2023-03-23T04:26:01;5.78;;;2.90;;
21860;SDS011;11095;48.066;8.540;2023-03-23T04:28:28;3.60;;;2.67;;
21860;SDS011;11095;48.066;8.540;2023-03-23T04:30:54;2.75;;;2.10;;
21860;SDS011;11095;48.066;8.540;2023-03-23T04:33:23;3.70;;;2.45;;
21860;SDS011;11095;48.066;8.540;2023-03-23T04:35:51;5.25;;;2.67;;
21860;SDS011;11095;48.066;8.540;2023-03-23T04:38:18;4.10;;;2.28;;
21860;SDS011;11095;48.066;8.540;2023-03-23T04:40:45;4.68;;;2.60;;
21860;SDS011;11095;48.066;8.540;2023-03-23T04:43:11;2.85;;;2.50;;
21860;SDS011;11095;48.066;8.540;2023-03-23T04:45:39;3.47;;;2.40;;
21860;SDS011;11095;48.066;8.540;2023-03-23T04:48:06;3.60;;;2.33;;
21860;SDS011;11095;48.066;8.540;2023-03-23T04:50:33;3.20;;;2.35;;
21860;SDS011;11095;48.066;8.540;2023-03-23T04:53:00;4.60;;;2.58;;
21860;SDS011;11095;48.066;8.540;2023-03-23T04:55:32;2.92;;;2.30;;
21860;SDS011;11095;48.066;8.540;2023-03-23T04:58:04;2.78;;;2.50;;
21860;SDS011;11095;48.066;8.540;2023-03-23T05:00:30;2.97;;;2.30;;
21860;SDS011;11095;48.066;8.540;2023-03-23T05:02:57;3.53;;;2.40;;
21860;SDS011;11095;48.066;8.540;2023-03-23T05:05:24;2.90;;;2.60;;
21860;SDS011;11095;48.066;8.540;2023-03-23T05:07:50;3.15;;;2.10;;
21860;SDS011;11095;48.066;8.540;2023-03-23T05:10:16;3.33;;;2.50;;
21860;SDS011;11095;48.066;8.540;2023-03-23T05:12:42;3.03;;;2.40;;
21860;SDS011;11095;48.066;8.540;2023-03-23T05:15:09;4.05;;;2.50;;
21860;SDS011;11095;48.066;8.540;2023-03-23T05:17:35;4.20;;;2.63;;
21860;SDS011;11095;48.066;8.540;2023-03-23T05:20:02;4.50;;;2.95;;
21860;SDS011;11095;48.066;8.540;2023-03-23T05:22:30;3.72;;;2.60;;
21860;SDS011;11095;48.066;8.540;2023-03-23T05:24:59;6.90;;;3.03;;
21860;SDS011;11095;48.066;8.540;2023-03-23T05:27:27;7.13;;;2.80;;
21860;SDS011;11095;48.066;8.540;2023-03-23T05:29:55;4.43;;;2.78;;
21860;SDS011;11095;48.066;8.540;2023-03-23T05:32:23;4.70;;;2.80;;
21860;SDS011;11095;48.066;8.540;2023-03-23T05:34:56;4.25;;;2.88;;
21860;SDS011;11095;48.066;8.540;2023-03-23T05:37:23;5.10;;;2.90;;
21860;SDS011;11095;48.066;8.540;2023-03-23T05:39:50;3.10;;;2.58;;
21860;SDS011;11095;48.066;8.540;2023-03-23T05:42:19;3.30;;;2.40;;
21860;SDS011;11095;48.066;8.540;2023-03-23T05:44:45;4.15;;;2.85;;
21860;SDS011;11095;48.066;8.540;2023-03-23T05:47:12;4.97;;;2.70;;
21860;SDS011;11095;48.066;8.540;2023-03-23T05:49:38;3.78;;;2.60;;
21860;SDS011;11095;48.066;8.540;2023-03-23T05:52:03;3.72;;;2.60;;
21860;SDS011;11095;48.066;8.540;2023-03-23T05:54:29;4.35;;;3.03;;
21860;SDS011;11095;48.066;8.540;2023-03-23T05:56:55;4.10;;;2.60;;
21860;SDS011;11095;48.066;8.540;2023-03-23T05:59:20;3.65;;;2.67;;
21860;SDS011;11095;48.066;8.540;2023-03-23T06:01:46;7.07;;;2.85;;
21860;SDS011;11095;48.066;8.540;2023-03-23T06:04:12;3.20;;;2.50;;
21860;SDS011;11095;48.066;8.540;2023-03-23T06:06:38;4.35;;;2.83;;
21860;SDS011;11095;48.066;8.540;2023-03-23T06:09:06;4.53;;;2.50;;
21860;SDS011;11095;48.066;8.540;2023-03-23T06:11:32;3.30;;;2.63;;
21860;SDS011;11095;48.066;8.540;2023-03-23T06:13:59;3.55;;;2.90;;
21860;SDS011;11095;48.066;8.540;2023-03-23T06:16:24;4.22;;;2.72;;
21860;SDS011;11095;48.066;8.540;2023-03-23T06:18:50;3.92;;;3.20;;
21860;SDS011;11095;48.066;8.540;2023-03-23T06:21:16;4.35;;;3.10;;
21860;SDS011;11095;48.066;8.540;2023-03-23T06:23:43;3.20;;;2.88;;
21860;SDS011;11095;48.066;8.540;2023-03-23T06:26:10;6.35;;;3.25;;
21860;SDS011;11095;48.066;8.540;2023-03-23T06:28:39;4.28;;;2.83;;
21860;SDS011;11095;48.066;8.540;2023-03-23T06:31:05;4.35;;;3.13;;
21860;SDS011;11095;48.066;8.540;2023-03-23T06:33:36;4.43;;;3.67;;
21860;SDS011;11095;48.066;8.540;2023-03-23T06:36:03;6.78;;;3.90;;
21860;SDS011;11095;48.066;8.540;2023-03-23T06:38:29;5.40;;;3.92;;
21860;SDS011;11095;48.066;8.540;2023-03-23T06:40:56;4.35;;;3.60;;
21860;SDS011;11095;48.066;8.540;2023-03-23T06:43:22;4.25;;;2.80;;
21860;SDS011;11095;48.066;8.540;2023-03-23T06:45:48;3.70;;;2.90;;
21860;SDS011;11095;48.066;8.540;2023-03-23T06:48:15;5.07;;;2.70;;
21860;SDS011;11095;48.066;8.540;2023-03-23T06:50:44;3.63;;;2.38;;
21860;SDS011;11095;48.066;8.540;2023-03-23T06:53:10;3.78;;;2.35;;
21860;SDS011;11095;48.066;8.540;2023-03-23T06:55:37;3.35;;;2.95;;
21860;SDS011;11095;48.066;8.540;2023-03-23T06:58:04;3.92;;;2.45;;
21860;SDS011;11095;48.066;8.540;2023-03-23T07:00:31;3.00;;;2.70;;
21860;SDS011;11095;48.066;8.540;2023-03-23T07:02:57;3.33;;;2.75;;
21860;SDS011;11095;48.066;8.540;2023-03-23T07:05:23;3.65;;;2.65;;
21860;SDS011;11095;48.066;8.540;2023-03-23T07:07:49;4.30;;;2.50;;
21860;SDS011;11095;48.066;8.540;2023-03-23T07:10:15;2.78;;;2.30;;
21860;SDS011;11095;48.066;8.540;2023-03-23T07:12:41;3.75;;;2.63;;
21860;SDS011;11095;48.066;8.540;2023-03-23T07:15:07;3.08;;;2.40;;
21860;SDS011;11095;48.066;8.540;2023-03-23T07:17:35;3.92;;;2.58;;
21860;SDS011;11095;48.066;8.540;2023-03-23T07:20:01;3.80;;;2.50;;
21860;SDS011;11095;48.066;8.540;2023-03-23T07:22:28;3.80;;;2.92;;
21860;SDS011;11095;48.066;8.540;2023-03-23T07:24:54;4.55;;;3.30;;
21860;SDS011;11095;48.066;8.540;2023-03-23T07:27:20;4.88;;;2.70;;
21860;SDS011;11095;48.066;8.540;2023-03-23T07:29:46;4.43;;;2.50;;
21860;SDS011;11095;48.066;8.540;2023-03-23T07:32:11;3.47;;;2.45;;
21860;SDS011;11095;48.066;8.540;2023-03-23T07:34:37;4.53;;;2.60;;
21860;SDS011;11095;48.066;8.540;2023-03-23T07:37:03;3.40;;;2.67;;
21860;SDS011;11095;48.066;8.540;2023-03-23T07:39:30;2.90;;;2.47;;
21860;SDS011;11095;48.066;8.540;2023-03-23T07:41:55;4.80;;;2.40;;
21860;SDS011;11095;48.066;8.540;2023-03-23T07:44:21;4.40;;;2.95;;
21860;SDS011;11095;48.066;8.540;2023-03-23T07:46:47;3.15;;;2.50;;
21860;SDS011;11095;48.066;8.540;2023-03-23T07:49:13;2.90;;;2.30;;
21860;SDS011;11095;48.066;8.540;2023-03-23T07:51:39;3.15;;;2.33;;
21860;SDS011;11095;48.066;8.540;2023-03-23T07:54:05;4.45;;;2.63;;
21860;SDS011;11095;48.066;8.540;2023-03-23T07:56:35;3.13;;;2.60;;
21860;SDS011;11095;48.066;8.540;2023-03-23T07:59:01;4.40;;;2.17;;
21860;SDS011;11095;48.066;8.540;2023-03-23T08:01:29;2.95;;;2.20;;
21860;SDS011;11095;48.066;8.540;2023-03-23T08:03:55;3.47;;;2.08;;
21860;SDS011;11095;48.066;8.540;2023-03-23T08:06:23;3.25;;;2.05;;
21860;SDS011;11095;48.066;8.540;2023-03-23T08:08:49;2.55;;;2.03;;
21860;SDS011;11095;48.066;8.540;2023-03-23T08:11:15;3.42;;;2.10;;
21860;SDS011;11095;48.066;8.540;2023-03-23T08:13:42;5.22;;;1.77;;
21860;SDS011;11095;48.066;8.540;2023-03-23T08:16:08;3.80;;;1.80;;
21860;SDS011;11095;48.066;8.540;2023-03-23T08:18:35;2.80;;;1.50;;
21860;SDS011;11095;48.066;8.540;2023-03-23T08:21:02;1.77;;;1.40;;
21860;SDS011;11095;48.066;8.540;2023-03-23T08:23:29;1.98;;;1.40;;
21860;SDS011;11095;48.066;8.540;2023-03-23T08:25:56;1.85;;;1.20;;
21860;SDS011;11095;48.066;8.540;2023-03-23T08:28:22;3.63;;;1.50;;
21860;SDS011;11095;48.066;8.540;2023-03-23T08:30:48;2.88;;;1.20;;
21860;SDS011;11095;48.066;8.540;2023-03-23T08:33:14;1.73;;;1.20;;
21860;SDS011;11095;48.066;8.540;2023-03-23T08:35:40;2.55;;;1.20;;
21860;SDS011;11095;48.066;8.540;2023-03-23T08:38:07;2.15;;;1.20;;
21860;SDS011;11095;48.066;8.540;2023-03-23T08:40:33;2.38;;;1.20;;
21860;SDS011;11095;48.066;8.540;2023-03-23T08:42:59;1.90;;;1.40;;
21860;SDS011;11095;48.066;8.540;2023-03-23T08:45:25;2.17;;;1.08;;
21860;SDS011;11095;48.066;8.540;2023-03-23T08:47:51;2.22;;;1.30;;
21860;SDS011;11095;48.066;8.540;2023-03-23T08:50:24;3.22;;;1.20;;
21860;SDS011;11095;48.066;8.540;2023-03-23T08:52:51;1.80;;;1.30;;
21860;SDS011;11095;48.066;8.540;2023-03-23T08:55:18;2.40;;;1.50;;
21860;SDS011;11095;48.066;8.540;2023-03-23T08:57:44;2.53;;;1.35;;
21860;SDS011;11095;48.066;8.540;2023-03-23T09:00:11;1.48;;;1.20;;
21860;SDS011;11095;48.066;8.540;2023-03-23T09:02:49;3.58;;;1.30;;
21860;SDS011;11095;48.066;8.540;2023-03-23T09:05:17;2.33;;;1.20;;
21860;SDS011;11095;48.066;8.540;2023-03-23T09:07:46;1.52;;;1.10;;
21860;SDS011;11095;48.066;8.540;2023-03-23T09:10:14;2.57;;;1.30;;
21860;SDS011;11095;48.066;8.540;2023-03-23T09:12:41;3.28;;;1.63;;
21860;SDS011;11095;48.066;8.540;2023-03-23T09:15:08;1.92;;;1.10;;
21860;SDS011;11095;48.066;8.540;2023-03-23T09:17:37;1.98;;;1.35;;
21860;SDS011;11095;48.066;8.540;2023-03-23T09:20:05;2.13;;;1.40;;
21860;SDS011;11095;48.066;8.540;2023-03-23T09:22:41;2.42;;;1.40;;
21860;SDS011;11095;48.066;8.540;2023-03-23T09:25:10;2.30;;;1.40;;
21860;SDS011;11095;48.066;8.540;2023-03-23T09:27:37;1.55;;;1.38;;
21860;SDS011;11095;48.066;8.540;2023-03-23T09:30:05;1.90;;;1.13;;
21860;SDS011;11095;48.066;8.540;2023-03-23T09:32:33;2.17;;;1.33;;
21860;SDS011;11095;48.066;8.540;2023-03-23T09:35:02;2.22;;;1.27;;
21860;SDS011;11095;48.066;8.540;2023-03-23T09:37:31;2.30;;;1.30;;
21860;SDS011;11095;48.066;8.540;2023-03-23T09:39:58;1.92;;;1.00;;
21860;SDS011;11095;48.066;8.540;2023-03-23T09:42:30;1.95;;;1.13;;
21860;SDS011;11095;48.066;8.540;2023-03-23T09:47:44;2.45;;;1.25;;
21860;SDS011;11095;48.066;8.540;2023-03-23T09:50:19;2.63;;;1.20;;
21860;SDS011;11095;48.066;8.540;2023-03-23T09:53:03;1.83;;;1.10;;
21860;SDS011;11095;48.066;8.540;2023-03-23T09:55:35;1.48;;;1.20;;
21860;SDS011;11095;48.066;8.540;2023-03-23T10:01:02;2.10;;;1.30;;
21860;SDS011;11095;48.066;8.540;2023-03-23T10:03:37;1.88;;;1.17;;
21860;SDS011;11095;48.066;8.540;2023-03-23T10:06:08;1.63;;;1.25;;
21860;SDS011;11095;48.066;8.540;2023-03-23T10:08:37;2.38;;;1.10;;
21860;SDS011;11095;48.066;8.540;2023-03-23T10:16:27;1.70;;;1.13;;
21860;SDS011;11095;48.066;8.540;2023-03-23T10:21:37;1.40;;;1.10;;
21860;SDS011;11095;48.066;8.540;2023-03-23T10:24:09;1.95;;;1.30;;
21860;SDS011;11095;48.066;8.540;2023-03-23T10:26:39;2.03;;;1.15;;
21860;SDS011;11095;48.066;8.540;2023-03-23T10:29:26;2.70;;;1.27;;
21860;SDS011;11095;48.066;8.540;2023-03-23T10:32:15;2.85;;;1.27;;
21860;SDS011;11095;48.066;8.540;2023-03-23T10:34:54;2.65;;;1.30;;
21860;SDS011;11095;48.066;8.540;2023-03-23T10:37:28;2.10;;;1.05;;
21860;SDS011;11095;48.066;8.540;2023-03-23T10:39:58;3.50;;;1.40;;
21860;SDS011;11095;48.066;8.540;2023-03-23T10:42:27;2.20;;;1.50;;
21860;SDS011;11095;48.066;8.540;2023-03-23T10:44:59;2.92;;;1.67;;
21860;SDS011;11095;48.066;8.540;2023-03-23T10:47:36;2.53;;;1.85;;
21860;SDS011;11095;48.066;8.540;2023-03-23T10:50:06;1.77;;;1.40;;
21860;SDS011;11095;48.066;8.540;2023-03-23T10:52:42;1.83;;;1.30;;
21860;SDS011;11095;48.066;8.540;2023-03-23T10:55:13;1.63;;;1.15;;
21860;SDS011;11095;48.066;8.540;2023-03-23T10:57:42;3.17;;;1.50;;
21860;SDS011;11095;48.066;8.540;2023-03-23T11:00:29;2.35;;;1.70;;
21860;SDS011;11095;48.066;8.540;2023-03-23T11:03:02;3.53;;;1.40;;
21860;SDS011;11095;48.066;8.540;2023-03-23T11:05:54;1.95;;;1.48;;
21860;SDS011;11095;48.066;8.540;2023-03-23T11:08:22;2.47;;;1.30;;
21860;SDS011;11095;48.066;8.540;2023-03-23T11:10:57;1.80;;;1.50;;
21860;SDS011;11095;48.066;8.540;2023-03-23T11:13:32;4.55;;;1.60;;
21860;SDS011;11095;48.066;8.540;2023-03-23T11:15:59;1.83;;;1.20;;
21860;SDS011;11095;48.066;8.540;2023-03-23T11:18:42;2.30;;;1.40;;
21860;SDS011;11095;48.066;8.540;2023-03-23T11:21:08;2.53;;;1.42;;
21860;SDS011;11095;48.066;8.540;2023-03-23T11:23:37;2.83;;;1.33;;
21860;SDS011;11095;48.066;8.540;2023-03-23T11:26:13;2.50;;;1.60;;
21860;SDS011;11095;48.066;8.540;2023-03-23T11:28:51;4.63;;;1.60;;
21860;SDS011;11095;48.066;8.540;2023-03-23T11:31:23;1.90;;;1.40;;
21860;SDS011;11095;48.066;8.540;2023-03-23T11:33:58;2.42;;;1.40;;
21860;SDS011;11095;48.066;8.540;2023-03-23T11:36:37;3.15;;;1.40;;
21860;SDS011;11095;48.066;8.540;2023-03-23T11:41:52;3.30;;;1.65;;
21860;SDS011;11095;48.066;8.540;2023-03-23T11:44:20;2.17;;;1.60;;
21860;SDS011;11095;48.066;8.540;2023-03-23T11:52:13;2.33;;;1.50;;
21860;SDS011;11095;48.066;8.540;2023-03-23T11:54:48;1.50;;;1.30;;
21860;SDS011;11095;48.066;8.540;2023-03-23T11:57:19;2.08;;;1.40;;
21860;SDS011;11095;48.066;8.540;2023-03-23T11:59:45;1.73;;;1.40;;
21860;SDS011;11095;48.066;8.540;2023-03-23T12:11:13;2.92;;;1.63;;
21860;SDS011;11095;48.066;8.540;2023-03-23T12:13:59;2.65;;;1.48;;
21860;SDS011;11095;48.066;8.540;2023-03-23T12:19:49;2.45;;;1.50;;
21860;SDS011;11095;48.066;8.540;2023-03-23T12:30:47;2.92;;;1.50;;
21860;SDS011;11095;48.066;8.540;2023-03-23T12:33:20;2.38;;;1.50;;
21860;SDS011;11095;48.066;8.540;2023-03-23T12:38:35;2.72;;;1.52;;
21860;SDS011;11095;48.066;8.540;2023-03-23T12:43:55;1.70;;;1.20;;
21860;SDS011;11095;48.066;8.540;2023-03-23T12:51:56;2.58;;;1.40;;
21860;SDS011;11095;48.066;8.540;2023-03-23T12:54:38;2.00;;;1.52;;
21860;SDS011;11095;48.066;8.540;2023-03-23T12:57:34;2.03;;;1.55;;
21860;SDS011;11095;48.066;8.540;2023-03-23T13:00:25;2.83;;;1.40;;
21860;SDS011;11095;48.066;8.540;2023-03-23T13:03:02;2.00;;;1.48;;
21860;SDS011;11095;48.066;8.540;2023-03-23T13:05:47;2.85;;;1.50;;
21860;SDS011;11095;48.066;8.540;2023-03-23T13:08:31;2.45;;;1.60;;
21860;SDS011;11095;48.066;8.540;2023-03-23T13:11:03;2.85;;;1.40;;
21860;SDS011;11095;48.066;8.540;2023-03-23T13:13:53;2.70;;;1.60;;
21860;SDS011;11095;48.066;8.540;2023-03-23T13:22:00;2.47;;;1.50;;
21860;SDS011;11095;48.066;8.540;2023-03-23T13:24:33;1.55;;;1.42;;
21860;SDS011;11095;48.066;8.540;2023-03-23T13:27:04;2.17;;;1.80;;
21860;SDS011;11095;48.066;8.540;2023-03-23T13:29:30;3.25;;;1.50;;
21860;SDS011;11095;48.066;8.540;2023-03-23T13:32:04;3.28;;;2.60;;
21860;SDS011;11095;48.066;8.540;2023-03-23T13:34:50;3.83;;;1.80;;
21860;SDS011;11095;48.066;8.540;2023-03-23T13:37:24;2.42;;;1.88;;
21860;SDS011;11095;48.066;8.540;2023-03-23T13:39:55;3.85;;;2.20;;
21860;SDS011;11095;48.066;8.540;2023-03-23T13:42:28;2.38;;;1.70;;
21860;SDS011;11095;48.066;8.540;2023-03-23T13:50:51;2.92;;;1.80;;
21860;SDS011;11095;48.066;8.540;2023-03-23T13:56:17;2.00;;;1.60;;
21860;SDS011;11095;48.066;8.540;2023-03-23T13:58:46;3.22;;;1.90;;
21860;SDS011;11095;48.066;8.540;2023-03-23T14:01:17;2.22;;;1.73;;
21860;SDS011;11095;48.066;8.540;2023-03-23T14:03:48;3.13;;;2.00;;
21860;SDS011;11095;48.066;8.540;2023-03-23T14:06:22;3.00;;;2.03;;
21860;SDS011;11095;48.066;8.540;2023-03-23T14:08:50;3.45;;;2.00;;
21860;SDS011;11095;48.066;8.540;2023-03-23T14:11:23;2.72;;;1.80;;
21860;SDS011;11095;48.066;8.540;2023-03-23T14:14:07;2.97;;;2.13;;
21860;SDS011;11095;48.066;8.540;2023-03-23T14:19:15;2.90;;;2.10;;
21860;SDS011;11095;48.066;8.540;2023-03-23T14:21:50;2.60;;;2.00;;
21860;SDS011;11095;48.066;8.540;2023-03-23T14:24:20;2.65;;;2.13;;
21860;SDS011;11095;48.066;8.540;2023-03-23T14:27:10;2.92;;;2.17;;
21860;SDS011;11095;48.066;8.540;2023-03-23T14:29:40;2.90;;;1.98;;
21860;SDS011;11095;48.066;8.540;2023-03-23T14:32:14;4.55;;;2.17;;
21860;SDS011;11095;48.066;8.540;2023-03-23T14:34:43;3.17;;;1.98;;
21860;SDS011;11095;48.066;8.540;2023-03-23T14:37:13;2.80;;;2.20;;
21860;SDS011;11095;48.066;8.540;2023-03-23T14:39:40;4.88;;;2.10;;
21860;SDS011;11095;48.066;8.540;2023-03-23T14:42:11;3.08;;;2.10;;
21860;SDS011;11095;48.066;8.540;2023-03-23T14:44:46;3.33;;;2.00;;
21860;SDS011;11095;48.066;8.540;2023-03-23T14:47:16;2.35;;;1.85;;
21860;SDS011;11095;48.066;8.540;2023-03-23T14:49:47;2.40;;;1.90;;
21860;SDS011;11095;48.066;8.540;2023-03-23T14:52:18;3.53;;;2.10;;
21860;SDS011;11095;48.066;8.540;2023-03-23T14:54:46;3.20;;;2.00;;
21860;SDS011;11095;48.066;8.540;2023-03-23T14:57:16;3.42;;;2.00;;
21860;SDS011;11095;48.066;8.540;2023-03-23T14:59:44;2.55;;;1.88;;
21860;SDS011;11095;48.066;8.540;2023-03-23T15:05:09;2.92;;;1.90;;
21860;SDS011;11095;48.066;8.540;2023-03-23T15:07:43;2.85;;;2.20;;
21860;SDS011;11095;48.066;8.540;2023-03-23T15:10:15;4.25;;;2.60;;
21860;SDS011;11095;48.066;8.540;2023-03-23T15:12:44;4.70;;;2.03;;
21860;SDS011;11095;48.066;8.540;2023-03-23T15:15:26;3.20;;;2.30;;
21860;SDS011;11095;48.066;8.540;2023-03-23T15:17:54;3.67;;;2.38;;
21860;SDS011;11095;48.066;8.540;2023-03-23T15:20:22;3.83;;;2.35;;
21860;SDS011;11095;48.066;8.540;2023-03-23T15:22:56;3.60;;;2.40;;
21860;SDS011;11095;48.066;8.540;2023-03-23T15:25:30;3.42;;;2.10;;
21860;SDS011;11095;48.066;8.540;2023-03-23T15:28:06;3.90;;;2.10;;
21860;SDS011;11095;48.066;8.540;2023-03-23T15:30:50;2.47;;;1.90;;
21860;SDS011;11095;48.066;8.540;2023-03-23T15:33:18;3.08;;;2.08;;
21860;SDS011;11095;48.066;8.540;2023-03-23T15:35:51;4.20;;;2.10;;
21860;SDS011;11095;48.066;8.540;2023-03-23T15:40:54;2.90;;;2.10;;
21860;SDS011;11095;48.066;8.540;2023-03-23T15:46:17;2.10;;;1.90;;
21860;SDS011;11095;48.066;8.540;2023-03-23T15:48:53;2.97;;;2.03;;
21860;SDS011;11095;48.066;8.540;2023-03-23T15:51:26;2.20;;;1.90;;
21860;SDS011;11095;48.066;8.540;2023-03-23T15:53:53;2.88;;;1.92;;
21860;SDS011;11095;48.066;8.540;2023-03-23T15:56:20;4.28;;;2.60;;
21860;SDS011;11095;48.066;8.540;2023-03-23T15:58:46;3.03;;;2.20;;
21860;SDS011;11095;48.066;8.540;2023-03-23T16:01:17;3.83;;;2.10;;
21860;SDS011;11095;48.066;8.540;2023-03-23T16:03:57;2.47;;;2.10;;
21860;SDS011;11095;48.066;8.540;2023-03-23T16:06:27;3.67;;;2.00;;
21860;SDS011;11095;48.066;8.540;2023-03-23T16:08:55;3.30;;;2.50;;
21860;SDS011;11095;48.066;8.540;2023-03-23T16:11:26;3.42;;;2.28;;
21860;SDS011;11095;48.066;8.540;2023-03-23T16:13:56;3.80;;;2.17;;
21860;SDS011;11095;48.066;8.540;2023-03-23T16:16:27;4.57;;;3.33;;
21860;SDS011;11095;48.066;8.540;2023-03-23T16:18:56;4.32;;;3.10;;
21860;SDS011;11095;48.066;8.540;2023-03-23T16:21:25;2.90;;;2.25;;
21860;SDS011;11095;48.066;8.540;2023-03-23T16:23:57;4.20;;;2.50;;
21860;SDS011;11095;48.066;8.540;2023-03-23T16:26:22;5.05;;;2.90;;
21860;SDS011;11095;48.066;8.540;2023-03-23T16:28:48;3.55;;;2.50;;
21860;SDS011;11095;48.066;8.540;2023-03-23T16:31:14;4.40;;;2.60;;
21860;SDS011;11095;48.066;8.540;2023-03-23T16:33:45;3.58;;;2.83;;
21860;SDS011;11095;48.066;8.540;2023-03-23T16:36:11;2.45;;;2.13;;
21860;SDS011;11095;48.066;8.540;2023-03-23T16:38:38;4.35;;;3.28;;
21860;SDS011;11095;48.066;8.540;2023-03-23T16:41:04;4.50;;;2.70;;
21860;SDS011;11095;48.066;8.540;2023-03-23T16:43:30;3.53;;;2.50;;